Ashgabat Airport
UTAA : now visible

Airfield :











YOU CAN JOIN US ON...

 
LOGIN :

Register | Disclaimer

   EN    FR    IT 

 









Legend :    VFR   Marginal VFR   IFR   Intensive IFR   Very Intensive IFR
Visi :
Ceiling :
>= 8 km
>= 3000ft
5 to 8 km
1000 to 3000 ft
1500m to 5 km
500 to 1000 ft
800 to 1500m
200 to 500 ft
< 800m
< 200 ft
Symbols :   Thunderstorms  Fog  Heavy snow  Heavy precipitations  Wind > 20 kt







- Airport Elevation : 692 ft
- IATA code : ASB


UTAA - Ashgabat

CURRENT METAR :
  • 250900Z 29012KT 9999 FEW050CB BKN050 OVC100 15/12 Q1010 R88/CLRD70 NOSIG

EXPIRED METARs :
  • 250800Z 30016KT 9999 FEW050CB BKN050 OVC100 16/11 Q1009 R88/CLRD70 NOSIG
  • 250700Z 30008KT 9999 FEW050CB BKN050 BKN100 OVC200 17/11 Q1009 R88/CLRD70 NOSIG

TAF AMD TAF UTAA
Valid from the 25 at 08:00 until the 26 at 06:00 UTC


250805Z 2508/2606 06018KT 6000 BKN030 SCT050CB 530009
TEMPO 2508/2512 33018G28KT
TEMPO 2512/2521 30020G30KT 3000 -RA BKN008
PROB40
TEMPO 2512/2521 VRB40KT TS
UTAA FIR / Asia



MET'MAP, your aeronautical weather chart ! - Copyright ORBIFLY December 2007 - Disclaimer

ORBIFLY MET'MAP TEAM :

Programming & Development : Alexandra Zaïnal
Concept & Development : Baudouin d'Aumeries
Co-Development & Prog : Marc-Olivier Méhu
Technical & hardware support : Manuel Goepfert

Contact : metmap@orbifly.com




SOURCES & CREDITS :

   NOAA       Earth
Advisory